Time;durP1;ratioP1;P1;durP2;ratioP2;P2;SDS_P1;SDS_P2;PMS_P1;PMS_P2;Temp;Humidity;BMP_temperature;BMP_pressure;BME280_temperature;BME280_humidity;BME280_pressure;Samples;Min_cycle;Max_cycle;Signal;HPM_P1;HPM_P2
2023/10/19 00:00:20;;;;;;;0.30;0.20;;;11.10;99.90;;;;;;5027935;28;20202;-75
2023/10/19 00:02:49;;;;;;;1.40;1.30;;;11.10;99.90;;;;;;5026747;28;20422;-91
2023/10/19 00:05:16;;;;;;;4.25;4.05;;;11.10;99.90;;;;;;5027958;28;20194;-91
2023/10/19 00:07:42;;;;;;;0.38;0.35;;;11.10;99.90;;;;;;5026165;28;20222;-92
2023/10/19 00:10:07;;;;;;;0.30;0.20;;;11.10;99.90;;;;;;5025830;28;20194;-76
2023/10/19 00:12:33;;;;;;;0.30;0.20;;;11.10;99.90;;;;;;5027847;28;20182;-91
2023/10/19 00:14:59;;;;;;;0.30;0.30;;;11.10;99.90;;;;;;5027505;28;20202;-91
2023/10/19 00:17:27;;;;;;;54.13;30.30;;;11.20;99.90;;;;;;5026970;28;20473;-92
2023/10/19 00:22:52;;;;;;;0.30;0.20;;;11.20;99.90;;;;;;5004724;28;20676;-76
2023/10/19 00:25:18;;;;;;;1.00;1.00;;;11.30;99.90;;;;;;5025755;28;20198;-92
2023/10/19 00:27:45;;;;;;;0.30;0.20;;;11.30;99.90;;;;;;5027122;28;20450;-91
2023/10/19 00:30:19;;;;;;;0.30;0.20;;;11.30;99.90;;;;;;5027710;28;20201;-92
2023/10/19 00:32:46;;;;;;;9.35;2.05;;;11.30;99.90;;;;;;5027029;28;20475;-76
2023/10/19 00:35:27;;;;;;;15.32;4.00;;;11.30;99.90;;;;;;5024994;28;20265;-92
2023/10/19 00:38:12;;;;;;;0.35;0.20;;;11.30;99.90;;;;;;5026063;28;20258;-91
2023/10/19 00:40:40;;;;;;;0.68;0.68;;;11.40;99.90;;;;;;5027446;28;20259;-92
2023/10/19 00:43:10;;;;;;;0.40;0.35;;;11.40;99.90;;;;;;5027013;28;20175;-76
2023/10/19 00:45:39;;;;;;;0.30;0.20;;;11.50;99.90;;;;;;5026657;28;20601;-86
2023/10/19 00:48:08;;;;;;;4.25;2.25;;;11.50;99.90;;;;;;5026976;28;20201;-76
2023/10/19 00:50:35;;;;;;;0.50;0.50;;;11.50;99.90;;;;;;5029889;28;20232;-92
2023/10/19 00:53:07;;;;;;;0.30;0.20;;;11.60;99.90;;;;;;5033019;28;20546;-91
2023/10/19 00:55:34;;;;;;;0.30;0.20;;;11.60;99.90;;;;;;5033466;28;20217;-76
2023/10/19 00:58:09;;;;;;;2.25;2.15;;;11.60;99.90;;;;;;5030333;28;20706;-91
2023/10/19 01:00:43;;;;;;;0.70;0.70;;;11.70;99.90;;;;;;5029025;28;20201;-92
2023/10/19 01:03:11;;;;;;;0.30;0.30;;;11.70;99.90;;;;;;5030414;28;20170;-92
2023/10/19 01:05:36;;;;;;;0.40;0.30;;;11.70;99.90;;;;;;5029399;28;20559;-91
2023/10/19 01:08:14;;;;;;;1.90;1.90;;;11.80;99.90;;;;;;5031246;28;20270;-88
2023/10/19 01:10:40;;;;;;;0.30;0.20;;;11.80;99.90;;;;;;5029838;28;20271;-93
2023/10/19 01:13:06;;;;;;;0.30;0.20;;;11.70;99.90;;;;;;5030796;28;20178;-82
2023/10/19 01:15:36;;;;;;;0.40;0.33;;;11.80;99.90;;;;;;5031189;28;20225;-76
2023/10/19 01:18:02;;;;;;;0.30;0.20;;;11.80;99.90;;;;;;5030477;28;20229;-92
2023/10/19 01:28:16;;;;;;;0.30;0.20;;;11.80;99.90;;;;;;5030763;28;20904;-75
2023/10/19 01:30:44;;;;;;;3.63;3.50;;;11.80;99.90;;;;;;5029011;28;20672;-76
2023/10/19 01:33:14;;;;;;;4.57;4.32;;;11.80;99.90;;;;;;5028885;28;20309;-75
2023/10/19 01:38:30;;;;;;;0.30;0.20;;;11.80;99.90;;;;;;5029592;28;20213;-75
2023/10/19 01:40:59;;;;;;;0.88;0.88;;;11.80;99.90;;;;;;5029951;28;20198;-77
2023/10/19 01:43:31;;;;;;;1.70;1.60;;;11.80;99.90;;;;;;5028384;28;20178;-90
2023/10/19 01:45:58;;;;;;;6.22;5.90;;;11.80;99.90;;;;;;5030423;28;20203;-91
2023/10/19 01:48:36;;;;;;;0.30;0.20;;;11.80;99.90;;;;;;5029535;28;20229;-90
2023/10/19 01:51:05;;;;;;;0.30;0.20;;;11.70;99.90;;;;;;5029887;28;20613;-91
2023/10/19 01:53:39;;;;;;;0.68;0.68;;;11.70;99.90;;;;;;5028136;28;20182;-90
2023/10/19 01:56:09;;;;;;;0.30;0.20;;;11.80;99.90;;;;;;5028697;28;20564;-76
2023/10/19 01:58:39;;;;;;;0.40;0.40;;;11.80;99.90;;;;;;5030020;28;20264;-76
2023/10/19 02:01:13;;;;;;;0.30;0.30;;;11.80;99.90;;;;;;5030192;28;20627;-91
2023/10/19 02:03:43;;;;;;;2.70;2.60;;;11.80;99.90;;;;;;5029076;28;20557;-91
2023/10/19 02:06:17;;;;;;;0.50;0.50;;;11.80;99.90;;;;;;5028190;28;20498;-76
2023/10/19 02:08:51;;;;;;;0.30;0.20;;;11.80;99.90;;;;;;5028359;28;20186;-92
2023/10/19 02:11:23;;;;;;;1.33;1.23;;;11.80;99.90;;;;;;5029707;28;20218;-91
2023/10/19 02:13:51;;;;;;;0.30;0.20;;;11.80;99.90;;;;;;5029780;28;20541;-92
2023/10/19 02:16:22;;;;;;;0.30;0.20;;;11.80;99.90;;;;;;5029118;28;20195;-92
2023/10/19 02:18:49;;;;;;;0.30;0.20;;;11.80;99.90;;;;;;5028314;28;20229;-75
2023/10/19 02:21:19;;;;;;;0.30;0.20;;;11.90;99.90;;;;;;5029266;28;20194;-92
2023/10/19 02:23:45;;;;;;;0.30;0.20;;;11.90;99.90;;;;;;5028075;28;20206;-76
2023/10/19 02:26:13;;;;;;;0.30;0.20;;;11.90;99.90;;;;;;5029225;28;20432;-76
2023/10/19 02:28:39;;;;;;;0.30;0.20;;;12.00;99.90;;;;;;5027825;28;20245;-76
2023/10/19 02:31:15;;;;;;;0.30;0.30;;;12.00;99.90;;;;;;5029067;28;20197;-76
2023/10/19 02:33:45;;;;;;;0.30;0.20;;;12.00;99.90;;;;;;5029419;28;20170;-92
2023/10/19 02:36:15;;;;;;;0.30;0.20;;;12.00;99.90;;;;;;5029018;28;20201;-90
2023/10/19 02:38:48;;;;;;;0.30;0.30;;;12.00;99.90;;;;;;5031014;28;20819;-76
2023/10/19 02:41:17;;;;;;;0.30;0.30;;;12.00;99.90;;;;;;5028792;28;20305;-76
2023/10/19 02:43:47;;;;;;;0.30;0.20;;;12.00;99.90;;;;;;5027252;28;20183;-91
2023/10/19 02:46:17;;;;;;;0.30;0.20;;;12.00;99.90;;;;;;5027760;28;20554;-76
2023/10/19 02:48:49;;;;;;;0.30;0.30;;;12.10;99.90;;;;;;5027065;28;20419;-76
2023/10/19 02:51:15;;;;;;;2.05;1.95;;;12.00;99.90;;;;;;5027207;28;20264;-76
2023/10/19 02:53:42;;;;;;;0.30;0.20;;;12.10;99.90;;;;;;5028375;28;20183;-76
2023/10/19 02:56:16;;;;;;;0.30;0.20;;;12.10;99.90;;;;;;5028478;28;20182;-91
2023/10/19 02:58:48;;;;;;;1.15;1.15;;;12.10;99.90;;;;;;5028789;28;20797;-92
2023/10/19 03:01:21;;;;;;;0.30;0.20;;;12.10;99.90;;;;;;5028678;28;20285;-91
2023/10/19 03:03:59;;;;;;;2.65;2.47;;;12.10;99.90;;;;;;5029115;28;20171;-76
2023/10/19 03:06:32;;;;;;;0.30;0.20;;;12.10;99.90;;;;;;5026713;28;20197;-75
2023/10/19 03:09:01;;;;;;;0.30;0.20;;;12.10;99.90;;;;;;5027492;28;20343;-76
2023/10/19 03:11:27;;;;;;;0.30;0.20;;;12.20;99.90;;;;;;5028078;28;20661;-76
2023/10/19 03:13:54;;;;;;;0.30;0.20;;;12.20;99.90;;;;;;5026957;28;20292;-76
2023/10/19 03:16:21;;;;;;;0.30;0.20;;;12.20;99.90;;;;;;5028583;28;20439;-76
2023/10/19 03:18:47;;;;;;;0.30;0.20;;;12.20;99.90;;;;;;5027201;28;20217;-76
2023/10/19 03:21:13;;;;;;;0.30;0.20;;;12.20;99.90;;;;;;5027302;28;20368;-76
2023/10/19 03:23:40;;;;;;;0.30;0.23;;;12.20;99.90;;;;;;5027095;28;20818;-76
2023/10/19 03:28:56;;;;;;;0.30;0.20;;;12.30;99.90;;;;;;5030933;28;20219;-91
2023/10/19 03:31:24;;;;;;;0.30;0.20;;;12.30;99.90;;;;;;5029074;28;20292;-76
2023/10/19 03:33:54;;;;;;;0.30;0.20;;;12.30;99.90;;;;;;5026739;28;20186;-92
2023/10/19 03:36:21;;;;;;;0.30;0.20;;;12.30;99.90;;;;;;5029437;28;20585;-92
2023/10/19 03:38:47;;;;;;;0.30;0.20;;;12.20;99.90;;;;;;5027741;28;20710;-76
2023/10/19 03:41:15;;;;;;;0.30;0.20;;;12.20;99.90;;;;;;5028258;28;20287;-93
2023/10/19 03:43:42;;;;;;;0.30;0.20;;;12.20;99.90;;;;;;5026319;28;21193;-76
2023/10/19 03:46:28;;;;;;;0.30;0.20;;;12.30;99.90;;;;;;5025362;28;20439;-76
2023/10/19 03:48:58;;;;;;;0.30;0.20;;;12.30;99.90;;;;;;5029596;28;20194;-92
2023/10/19 03:51:38;;;;;;;0.30;0.20;;;12.40;99.90;;;;;;5031887;28;20405;-91
2023/10/19 03:54:07;;;;;;;0.30;0.30;;;12.40;99.90;;;;;;5029468;28;20183;-94
2023/10/19 03:56:33;;;;;;;0.30;0.20;;;12.40;99.90;;;;;;5029221;28;20834;-92
2023/10/19 03:59:00;;;;;;;0.30;0.20;;;12.40;99.90;;;;;;5027636;28;20459;-76
2023/10/19 04:01:25;;;;;;;0.30;0.20;;;12.40;99.90;;;;;;5026009;28;20187;-76
2023/10/19 04:03:54;;;;;;;0.30;0.30;;;12.50;99.90;;;;;;5028840;28;20408;-76
2023/10/19 04:06:21;;;;;;;0.30;0.20;;;12.50;99.90;;;;;;5026526;28;20597;-91
2023/10/19 04:08:50;;;;;;;0.90;0.90;;;12.50;99.90;;;;;;5027669;28;20854;-92
2023/10/19 04:11:23;;;;;;;0.30;0.20;;;12.50;99.90;;;;;;5028796;28;20471;-94
2023/10/19 04:13:55;;;;;;;1.48;1.38;;;12.50;99.90;;;;;;5027892;28;20452;-75
2023/10/19 04:16:21;;;;;;;0.30;0.20;;;12.50;99.90;;;;;;5026828;28;20852;-75
2023/10/19 04:18:48;;;;;;;0.30;0.20;;;12.60;99.90;;;;;;5026617;28;20495;-75
2023/10/19 04:21:13;;;;;;;0.43;0.40;;;12.60;99.90;;;;;;5028767;28;20852;-75
2023/10/19 04:23:40;;;;;;;0.30;0.20;;;12.60;99.90;;;;;;5026388;28;20803;-75
2023/10/19 04:26:12;;;;;;;0.30;0.30;;;12.60;99.90;;;;;;5028285;28;20888;-75
2023/10/19 04:28:50;;;;;;;0.30;0.20;;;12.50;99.90;;;;;;5029743;28;20246;-91
2023/10/19 04:31:19;;;;;;;0.30;0.20;;;12.50;99.90;;;;;;5040574;28;20719;-75
2023/10/19 04:33:45;;;;;;;0.30;0.20;;;12.60;99.90;;;;;;5026907;28;20412;-92
2023/10/19 04:36:15;;;;;;;0.30;0.20;;;12.60;99.90;;;;;;5029155;28;20526;-76
2023/10/19 04:38:41;;;;;;;0.30;0.20;;;12.60;99.90;;;;;;5029117;28;20310;-76
2023/10/19 04:41:08;;;;;;;0.30;0.20;;;12.70;99.90;;;;;;5047065;28;20450;-75
2023/10/19 04:43:39;;;;;;;0.30;0.20;;;12.70;99.90;;;;;;5045873;28;20415;-91
2023/10/19 04:46:11;;;;;;;0.30;0.20;;;12.70;99.90;;;;;;5046124;28;20939;-92
2023/10/19 04:48:39;;;;;;;0.30;0.20;;;12.70;99.90;;;;;;5030127;28;20444;-92
2023/10/19 04:51:06;;;;;;;0.40;0.30;;;12.80;99.90;;;;;;5026950;28;20578;-91
2023/10/19 04:53:32;;;;;;;0.30;0.20;;;12.70;99.90;;;;;;5026814;28;20175;-91
2023/10/19 04:56:00;;;;;;;0.30;0.20;;;12.70;99.90;;;;;;5044788;28;20470;-76
2023/10/19 04:58:27;;;;;;;0.30;0.20;;;12.70;99.90;;;;;;5042892;28;21171;-76
2023/10/19 05:00:53;;;;;;;1.70;1.27;;;12.70;99.90;;;;;;5041714;28;20210;-93
2023/10/19 05:03:19;;;;;;;0.30;0.20;;;12.70;99.90;;;;;;5034793;28;20492;-91
2023/10/19 05:05:45;;;;;;;0.40;0.20;;;12.70;99.90;;;;;;5045945;28;20205;-92
2023/10/19 05:08:11;;;;;;;0.70;0.70;;;12.70;99.90;;;;;;5045752;28;20181;-92
2023/10/19 05:10:37;;;;;;;0.30;0.20;;;12.70;99.90;;;;;;5043526;28;20840;-92
2023/10/19 05:13:03;;;;;;;0.50;0.47;;;12.70;99.90;;;;;;5044645;28;20423;-76
2023/10/19 05:15:29;;;;;;;0.43;0.43;;;12.70;99.90;;;;;;5045400;28;20202;-93
2023/10/19 05:17:55;;;;;;;0.30;0.20;;;12.70;99.90;;;;;;5045646;28;20468;-91
2023/10/19 05:20:21;;;;;;;1.53;1.43;;;12.70;99.90;;;;;;5045996;28;20852;-79
2023/10/19 05:22:47;;;;;;;0.30;0.20;;;12.70;99.90;;;;;;5045238;28;20189;-90
2023/10/19 05:25:13;;;;;;;1.53;1.43;;;12.70;99.90;;;;;;5042958;28;20860;-91
2023/10/19 05:27:39;;;;;;;0.30;0.20;;;12.70;99.90;;;;;;5042105;28;20739;-76
2023/10/19 05:30:07;;;;;;;0.40;0.40;;;12.60;99.90;;;;;;5034144;28;20470;-75
2023/10/19 05:32:33;;;;;;;0.30;0.20;;;12.60;99.90;;;;;;5044701;28;20186;-92
2023/10/19 05:35:04;;;;;;;0.30;0.20;;;12.60;99.90;;;;;;5043152;28;20507;-92
2023/10/19 05:37:30;;;;;;;1.23;1.23;;;12.60;99.90;;;;;;5047588;28;20480;-76
2023/10/19 05:39:56;;;;;;;0.40;0.37;;;12.60;99.90;;;;;;5047094;28;20478;-89
2023/10/19 05:42:22;;;;;;;0.30;0.23;;;12.50;99.90;;;;;;5044643;28;20178;-76
2023/10/19 05:44:47;;;;;;;0.30;0.20;;;12.50;99.90;;;;;;5049923;28;20465;-76
2023/10/19 05:47:13;;;;;;;1.80;1.80;;;12.50;99.90;;;;;;5043348;28;20813;-76
2023/10/19 05:49:39;;;;;;;0.30;0.20;;;12.60;99.90;;;;;;5046491;28;20205;-76
2023/10/19 05:52:04;;;;;;;0.30;0.20;;;12.60;99.90;;;;;;5041417;28;20190;-76
2023/10/19 05:54:30;;;;;;;0.30;0.30;;;12.60;99.90;;;;;;5083895;28;20265;-93
2023/10/19 05:56:56;;;;;;;0.30;0.30;;;12.60;99.90;;;;;;5043534;28;20190;-90
2023/10/19 05:59:23;;;;;;;0.30;0.30;;;12.60;99.90;;;;;;5047679;28;20253;-76
2023/10/19 06:01:49;;;;;;;0.30;0.20;;;12.60;99.90;;;;;;5047502;28;20721;-76
2023/10/19 06:04:15;;;;;;;0.30;0.20;;;12.70;99.90;;;;;;5032225;28;20186;-76
2023/10/19 06:06:41;;;;;;;1.53;1.53;;;12.60;99.90;;;;;;5030017;28;20186;-76
2023/10/19 06:09:09;;;;;;;0.53;0.53;;;12.70;99.90;;;;;;5046690;28;20190;-92
2023/10/19 06:11:37;;;;;;;0.30;0.20;;;12.70;99.90;;;;;;5038824;28;20241;-75
2023/10/19 06:14:06;;;;;;;0.97;0.97;;;12.70;99.90;;;;;;5030490;28;20635;-76
2023/10/19 06:16:33;;;;;;;0.30;0.20;;;12.80;99.90;;;;;;5043785;28;20634;-75
2023/10/19 06:18:59;;;;;;;0.30;0.30;;;12.80;99.90;;;;;;5040109;28;20671;-76
2023/10/19 06:21:25;;;;;;;0.67;0.67;;;12.80;99.90;;;;;;5038673;28;20442;-92
2023/10/19 06:23:52;;;;;;;0.30;0.20;;;12.80;99.90;;;;;;5035769;28;20416;-89
2023/10/19 06:26:18;;;;;;;0.30;0.30;;;12.90;99.90;;;;;;5044662;28;20288;-76
2023/10/19 06:28:44;;;;;;;1.07;0.97;;;12.90;99.90;;;;;;5042071;28;20670;-77
2023/10/19 06:31:17;;;;;;;0.83;0.83;;;12.90;99.90;;;;;;5046581;28;20812;-92
2023/10/19 06:33:43;;;;;;;0.30;0.20;;;12.90;99.90;;;;;;5046121;28;20317;-75
2023/10/19 06:36:09;;;;;;;0.40;0.40;;;12.90;99.90;;;;;;5044207;28;20502;-92
2023/10/19 06:38:35;;;;;;;2.83;2.63;;;13.00;99.90;;;;;;5039987;28;20478;-77
2023/10/19 06:41:09;;;;;;;2.33;2.13;;;12.90;99.90;;;;;;5042347;28;20297;-88
2023/10/19 06:43:36;;;;;;;0.30;0.20;;;13.00;99.90;;;;;;5047120;28;20411;-75
2023/10/19 06:46:01;;;;;;;0.30;0.30;;;13.00;99.90;;;;;;5050281;28;20457;-92
2023/10/19 06:48:27;;;;;;;0.53;0.53;;;13.00;99.90;;;;;;5046877;28;20677;-91
2023/10/19 06:50:53;;;;;;;0.30;0.20;;;13.00;99.90;;;;;;5033758;28;20406;-76
2023/10/19 06:53:18;;;;;;;0.30;0.30;;;13.00;99.90;;;;;;5043847;28;20217;-76
2023/10/19 06:55:44;;;;;;;0.30;0.20;;;13.10;99.90;;;;;;5046951;28;20216;-92
2023/10/19 06:58:11;;;;;;;0.30;0.20;;;13.10;99.90;;;;;;5037982;28;20186;-86
2023/10/19 07:00:42;;;;;;;0.30;0.20;;;13.20;99.90;;;;;;5042182;28;20198;-92
2023/10/19 07:03:08;;;;;;;0.73;0.73;;;13.10;99.90;;;;;;5029554;28;21100;-92
2023/10/19 07:05:34;;;;;;;2.93;2.73;;;13.20;99.90;;;;;;5027645;28;20443;-76
2023/10/19 07:08:01;;;;;;;0.30;0.20;;;13.20;99.90;;;;;;5058923;28;20778;-77
2023/10/19 07:10:27;;;;;;;0.30;0.20;;;13.30;99.90;;;;;;5048768;28;20466;-76
2023/10/19 07:12:55;;;;;;;0.80;0.80;;;13.40;99.90;;;;;;5038975;28;20466;-93
2023/10/19 07:15:25;;;;;;;0.30;0.20;;;13.40;99.90;;;;;;5047146;28;20449;-76
2023/10/19 07:17:54;;;;;;;0.40;0.30;;;13.50;99.90;;;;;;5041671;28;20524;-76
2023/10/19 07:20:31;;;;;;;0.40;0.40;;;13.50;99.90;;;;;;5040526;28;20498;-76
2023/10/19 07:23:18;;;;;;;0.30;0.30;;;13.60;99.90;;;;;;5038742;28;20436;-76
2023/10/19 07:25:47;;;;;;;0.30;0.20;;;13.60;99.90;;;;;;5036202;28;20503;-93
2023/10/19 07:28:14;;;;;;;0.40;0.40;;;13.60;99.90;;;;;;5039586;28;20458;-93
2023/10/19 07:30:41;;;;;;;0.30;0.20;;;13.70;99.90;;;;;;5042326;28;20442;-93
2023/10/19 07:33:09;;;;;;;2.63;0.90;;;13.70;99.90;;;;;;5042722;28;20427;-75
2023/10/19 07:35:52;;;;;;;0.30;0.20;;;13.70;99.90;;;;;;5034461;28;20459;-93
2023/10/19 07:38:25;;;;;;;0.30;0.20;;;13.80;99.90;;;;;;5044537;28;20815;-77
2023/10/19 07:40:53;;;;;;;0.30;0.20;;;13.80;99.90;;;;;;5038042;28;20897;-90
2023/10/19 07:43:21;;;;;;;0.30;0.20;;;13.80;99.90;;;;;;5047469;28;20430;-75
2023/10/19 07:45:47;;;;;;;0.30;0.30;;;13.80;99.90;;;;;;5042083;28;20467;-93
2023/10/19 07:48:14;;;;;;;1.53;1.43;;;13.90;99.90;;;;;;5044497;28;20495;-76
2023/10/19 07:50:42;;;;;;;0.57;0.57;;;14.00;99.90;;;;;;5044222;28;20677;-76
2023/10/19 07:53:09;;;;;;;0.67;0.67;;;14.20;99.90;;;;;;5050194;28;20525;-93
2023/10/19 07:55:36;;;;;;;0.40;0.20;;;14.40;99.90;;;;;;5042595;28;20458;-76
2023/10/19 07:58:06;;;;;;;0.40;0.20;;;14.90;99.90;;;;;;5049532;28;20426;-91
2023/10/19 08:00:34;;;;;;;0.40;0.20;;;15.20;99.90;;;;;;5051813;28;20460;-94
2023/10/19 08:03:01;;;;;;;0.40;0.30;;;15.50;99.90;;;;;;5055406;28;20442;-94
2023/10/19 08:05:27;;;;;;;0.40;0.20;;;15.80;99.90;;;;;;5057582;28;20494;-91
2023/10/19 08:07:53;;;;;;;0.40;0.20;;;16.10;99.90;;;;;;5047620;28;21170;-93
2023/10/19 08:10:20;;;;;;;0.30;0.20;;;16.30;99.90;;;;;;5047872;28;20481;-76
2023/10/19 08:12:47;;;;;;;0.40;0.20;;;16.40;99.90;;;;;;5051448;28;20958;-76
2023/10/19 08:15:15;;;;;;;0.40;0.20;;;16.60;99.90;;;;;;5055186;28;20483;-77
2023/10/19 08:17:50;;;;;;;0.40;0.30;;;17.10;99.90;;;;;;5048272;28;20954;-79
2023/10/19 08:20:30;;;;;;;0.50;0.50;;;17.70;99.90;;;;;;5067580;28;20890;-79
2023/10/19 08:22:57;;;;;;;0.40;0.30;;;18.30;99.90;;;;;;5042132;28;20410;-94
2023/10/19 08:25:23;;;;;;;0.30;0.20;;;18.40;99.90;;;;;;5033487;28;20516;-79
2023/10/19 08:27:51;;;;;;;0.73;0.73;;;18.90;99.90;;;;;;5046710;28;20429;-93
2023/10/19 08:30:21;;;;;;;0.30;0.20;;;19.50;99.90;;;;;;5054655;28;20448;-79
2023/10/19 08:32:47;;;;;;;0.30;0.20;;;20.20;99.90;;;;;;5045220;28;20505;-79
2023/10/19 08:35:24;;;;;;;0.40;0.30;;;20.50;99.90;;;;;;5052879;28;20457;-79
2023/10/19 08:37:50;;;;;;;0.30;0.20;;;20.90;99.90;;;;;;5041175;28;20513;-90
2023/10/19 08:40:17;;;;;;;4.30;0.97;;;21.10;99.90;;;;;;5032541;28;20988;-78
2023/10/19 08:42:48;;;;;;;0.30;0.20;;;21.10;99.90;;;;;;5061955;28;20427;-78
2023/10/19 08:45:14;;;;;;;3.03;2.33;;;21.00;99.90;;;;;;5067952;28;20948;-91
2023/10/19 08:47:56;;;;;;;0.93;0.50;;;20.40;99.90;;;;;;5038110;28;20427;-77
2023/10/19 08:50:24;;;;;;;0.70;0.67;;;19.80;99.90;;;;;;5030828;28;20541;-89
2023/10/19 08:52:53;;;;;;;0.30;0.20;;;19.40;99.90;;;;;;5039638;28;20435;-77
2023/10/19 08:55:20;;;;;;;0.30;0.20;;;19.20;99.90;;;;;;5035618;28;20460;-91
2023/10/19 08:57:49;;;;;;;2.23;1.37;;;19.00;99.90;;;;;;5035798;28;20456;-89
2023/10/19 09:00:18;;;;;;;0.30;0.20;;;18.80;99.90;;;;;;5042489;28;20966;-77
2023/10/19 09:02:45;;;;;;;0.90;0.90;;;18.70;99.90;;;;;;5039198;28;20433;-89
2023/10/19 09:05:25;;;;;;;0.50;0.50;;;18.60;99.90;;;;;;5034212;28;20454;-89
2023/10/19 09:07:55;;;;;;;0.30;0.20;;;18.40;99.90;;;;;;5037396;28;20560;-77
2023/10/19 09:10:31;;;;;;;2.00;1.60;;;18.30;99.90;;;;;;5035149;28;20487;-77
2023/10/19 09:13:07;;;;;;;0.50;0.50;;;18.20;99.90;;;;;;5043329;28;20442;-77
2023/10/19 09:15:34;;;;;;;0.30;0.20;;;18.30;99.90;;;;;;5060660;28;20474;-90
2023/10/19 09:18:17;;;;;;;0.50;0.47;;;18.50;99.90;;;;;;5035989;28;20439;-90
2023/10/19 09:20:53;;;;;;;0.53;0.50;;;18.60;99.90;;;;;;5035034;28;20823;-91
2023/10/19 09:23:29;;;;;;;0.30;0.20;;;18.70;99.90;;;;;;5033861;28;20426;-91
2023/10/19 09:25:57;;;;;;;0.33;0.30;;;18.70;99.90;;;;;;5040726;28;20668;-77
2023/10/19 09:28:24;;;;;;;0.57;0.53;;;18.80;99.90;;;;;;5043107;28;20411;-77
2023/10/19 09:30:50;;;;;;;1.30;1.30;;;19.00;99.90;;;;;;5030713;28;20470;-90
2023/10/19 09:33:17;;;;;;;0.40;0.20;;;19.10;99.90;;;;;;5030599;28;20847;-90
2023/10/19 09:35:52;;;;;;;0.30;0.20;;;19.20;99.90;;;;;;5034180;28;20462;-90
2023/10/19 09:38:21;;;;;;;1.13;1.13;;;19.20;99.90;;;;;;5038393;28;20430;-77
2023/10/19 09:40:49;;;;;;;1.23;0.80;;;19.30;99.90;;;;;;5034961;28;20556;-89
2023/10/19 09:43:30;;;;;;;0.30;0.20;;;19.30;99.90;;;;;;5044254;28;20794;-89
2023/10/19 09:46:00;;;;;;;0.40;0.40;;;19.40;99.90;;;;;;5042081;28;20442;-89
2023/10/19 09:48:26;;;;;;;0.30;0.20;;;19.50;99.90;;;;;;5040810;28;20442;-78
2023/10/19 09:50:58;;;;;;;0.90;0.90;;;19.60;99.90;;;;;;5039876;28;20449;-89
2023/10/19 09:53:26;;;;;;;0.30;0.20;;;19.70;99.90;;;;;;5034344;28;20426;-76
2023/10/19 09:55:58;;;;;;;1.47;1.37;;;19.80;99.90;;;;;;5033867;28;20489;-76
2023/10/19 09:58:31;;;;;;;1.40;1.40;;;19.90;99.90;;;;;;5032034;28;20539;-89
2023/10/19 10:01:02;;;;;;;0.30;0.20;;;20.00;99.90;;;;;;5042107;28;20881;-79
2023/10/19 10:03:45;;;;;;;0.80;0.80;;;20.00;99.90;;;;;;5027216;28;20466;-89
2023/10/19 10:06:12;;;;;;;0.40;0.30;;;20.10;99.90;;;;;;5044375;28;20871;-89
2023/10/19 10:08:39;;;;;;;0.50;0.40;;;20.20;99.90;;;;;;5027227;28;20873;-90
2023/10/19 10:11:16;;;;;;;0.30;0.20;;;20.30;99.90;;;;;;5022277;28;20487;-77
2023/10/19 10:13:44;;;;;;;0.60;0.50;;;20.30;99.90;;;;;;5038093;28;20438;-77
2023/10/19 10:16:14;;;;;;;0.30;0.20;;;20.40;99.90;;;;;;5035040;28;20446;-77
2023/10/19 10:18:40;;;;;;;1.53;1.43;;;20.40;99.90;;;;;;5035411;28;20768;-90
2023/10/19 10:21:20;;;;;;;0.50;0.50;;;20.40;99.90;;;;;;5015963;28;20531;-77
2023/10/19 10:23:53;;;;;;;1.63;1.13;;;20.50;99.90;;;;;;5026892;28;20519;-77
2023/10/19 10:26:26;;;;;;;0.30;0.20;;;20.60;99.90;;;;;;5042439;28;20464;-89
2023/10/19 10:29:11;;;;;;;0.30;0.20;;;20.70;99.90;;;;;;5029317;28;20437;-77
2023/10/19 10:31:48;;;;;;;0.30;0.20;;;20.70;99.90;;;;;;5032402;28;20790;-89
2023/10/19 10:34:45;;;;;;;0.30;0.20;;;20.70;99.90;;;;;;5035030;28;20469;-76
2023/10/19 10:37:13;;;;;;;0.63;0.63;;;20.70;99.90;;;;;;5021114;28;21030;-89
2023/10/19 10:39:40;;;;;;;0.40;0.40;;;20.70;99.90;;;;;;5029764;28;20510;-89
2023/10/19 10:42:10;;;;;;;0.50;0.50;;;20.70;99.90;;;;;;5039752;28;20975;-89
2023/10/19 10:44:45;;;;;;;0.30;0.20;;;20.60;99.90;;;;;;5041129;28;20438;-89
2023/10/19 10:47:29;;;;;;;0.30;0.30;;;20.50;99.90;;;;;;5037553;28;21214;-88
2023/10/19 10:50:02;;;;;;;0.30;0.20;;;20.50;99.90;;;;;;5031468;28;20459;-89
2023/10/19 10:52:33;;;;;;;0.50;0.47;;;20.50;99.90;;;;;;5032008;28;20430;-89
2023/10/19 10:55:11;;;;;;;1.37;1.00;;;20.40;99.90;;;;;;5040205;28;20830;-77
2023/10/19 10:57:37;;;;;;;0.83;0.80;;;20.30;99.90;;;;;;5039915;28;20870;-90
2023/10/19 11:00:25;;;;;;;0.30;0.20;;;20.20;99.90;;;;;;5037085;28;20502;-77
2023/10/19 11:03:09;;;;;;;1.07;0.97;;;20.20;99.90;;;;;;5036843;28;20423;-88
2023/10/19 11:05:36;;;;;;;0.30;0.20;;;20.20;99.90;;;;;;5034031;28;20454;-90
2023/10/19 11:08:20;;;;;;;0.40;0.20;;;20.20;99.90;;;;;;5027779;28;20522;-77
2023/10/19 11:10:47;;;;;;;0.30;0.20;;;20.20;99.90;;;;;;5037236;28;20573;-77
2023/10/19 11:13:34;;;;;;;1.07;1.07;;;20.10;99.90;;;;;;5052789;28;20426;-89
2023/10/19 11:16:05;;;;;;;0.30;0.20;;;20.20;99.90;;;;;;5035067;28;20520;-89
2023/10/19 11:18:45;;;;;;;0.30;0.20;;;20.20;99.90;;;;;;5032241;28;21012;-77
2023/10/19 11:21:14;;;;;;;0.37;0.30;;;20.20;99.90;;;;;;5056892;28;20449;-88
2023/10/19 11:23:48;;;;;;;0.30;0.20;;;20.10;99.90;;;;;;5033154;28;21007;-77
2023/10/19 11:26:20;;;;;;;0.30;0.20;;;20.10;99.90;;;;;;5038439;28;20899;-78
2023/10/19 11:28:51;;;;;;;0.40;0.30;;;20.10;99.90;;;;;;5053351;28;20427;-89
2023/10/19 11:31:24;;;;;;;0.30;0.20;;;20.10;99.90;;;;;;5033877;28;20820;-89
2023/10/19 11:33:52;;;;;;;0.30;0.20;;;20.10;99.90;;;;;;5029606;28;20416;-90
2023/10/19 11:36:20;;;;;;;1.60;1.43;;;20.10;99.90;;;;;;5035266;28;20691;-78
2023/10/19 11:38:47;;;;;;;0.30;0.20;;;20.10;99.90;;;;;;5037174;28;20472;-89
2023/10/19 11:41:14;;;;;;;0.43;0.43;;;20.00;99.90;;;;;;5032662;28;20546;-77
2023/10/19 11:43:42;;;;;;;0.30;0.20;;;20.10;99.90;;;;;;5024551;28;20551;-89
2023/10/19 11:46:09;;;;;;;0.30;0.20;;;20.10;99.90;;;;;;5040499;28;20594;-77
2023/10/19 11:48:36;;;;;;;0.30;0.20;;;20.10;99.90;;;;;;5038821;28;20427;-77
2023/10/19 11:51:05;;;;;;;0.30;0.30;;;20.10;99.90;;;;;;5041048;28;20824;-90
2023/10/19 11:53:36;;;;;;;0.30;0.20;;;20.20;99.90;;;;;;5038008;28;20437;-88
2023/10/19 11:56:06;;;;;;;0.80;0.80;;;20.20;99.90;;;;;;5059233;28;20796;-78
2023/10/19 11:58:34;;;;;;;0.30;0.20;;;20.20;99.90;;;;;;5026001;28;20562;-77
2023/10/19 12:01:00;;;;;;;0.30;0.20;;;20.20;99.90;;;;;;5034847;28;20466;-89
2023/10/19 12:03:26;;;;;;;0.30;0.20;;;20.20;99.90;;;;;;5035986;28;20904;-90
2023/10/19 12:05:56;;;;;;;0.60;0.60;;;20.20;99.90;;;;;;5023793;28;20450;-89
2023/10/19 12:08:22;;;;;;;0.30;0.20;;;20.20;99.90;;;;;;5038415;28;20768;-89
2023/10/19 12:10:49;;;;;;;1.37;1.37;;;20.20;99.90;;;;;;5032167;28;20471;-89
2023/10/19 12:13:16;;;;;;;0.30;0.20;;;20.20;99.90;;;;;;5037507;28;20927;-89
2023/10/19 12:15:41;;;;;;;0.30;0.20;;;20.30;99.90;;;;;;5035041;28;20517;-78
2023/10/19 12:18:08;;;;;;;0.30;0.20;;;20.30;99.90;;;;;;5047199;28;20435;-78
2023/10/19 12:20:35;;;;;;;0.30;0.20;;;20.30;99.90;;;;;;5039533;28;20194;-90
2023/10/19 12:23:01;;;;;;;0.30;0.30;;;20.30;99.90;;;;;;5032105;28;20431;-89
2023/10/19 12:25:29;;;;;;;0.30;0.20;;;20.40;99.90;;;;;;5043327;28;20444;-77
2023/10/19 12:27:57;;;;;;;0.30;0.20;;;20.40;99.90;;;;;;5035633;28;20605;-78
2023/10/19 12:30:26;;;;;;;0.97;0.97;;;20.40;99.90;;;;;;5034228;28;20470;-90
2023/10/19 12:32:54;;;;;;;0.87;0.60;;;20.50;99.90;;;;;;5033530;28;20964;-78
2023/10/19 12:35:24;;;;;;;0.30;0.20;;;20.50;99.90;;;;;;5036837;28;20971;-89
2023/10/19 12:37:53;;;;;;;0.30;0.20;;;20.50;99.90;;;;;;5034712;28;20931;-89
2023/10/19 12:40:26;;;;;;;0.30;0.30;;;20.60;99.90;;;;;;5022338;28;20509;-90
2023/10/19 12:42:54;;;;;;;0.30;0.20;;;20.60;99.90;;;;;;5030953;28;20500;-90
2023/10/19 12:45:21;;;;;;;0.30;0.20;;;20.70;99.90;;;;;;5037912;28;20466;-78
2023/10/19 12:47:48;;;;;;;0.90;0.90;;;20.80;99.90;;;;;;5028598;28;20441;-89
2023/10/19 12:50:14;;;;;;;0.50;0.50;;;20.90;99.90;;;;;;5029288;28;20918;-78
2023/10/19 12:52:40;;;;;;;0.30;0.20;;;21.10;99.90;;;;;;5035154;28;20433;-78
2023/10/19 12:55:07;;;;;;;0.30;0.20;;;21.30;99.90;;;;;;5037180;28;21105;-78
2023/10/19 12:57:34;;;;;;;0.30;0.20;;;21.40;99.90;;;;;;5028652;28;20441;-78
2023/10/19 13:00:23;;;;;;;0.30;0.20;;;21.60;99.90;;;;;;5031250;28;20493;-88
2023/10/19 13:02:48;;;;;;;0.30;0.30;;;21.80;99.90;;;;;;5036323;28;20432;-77
2023/10/19 13:05:18;;;;;;;0.40;0.20;;;22.10;99.90;;;;;;5031603;28;20466;-90
2023/10/19 13:07:44;;;;;;;0.30;0.20;;;22.20;99.90;;;;;;5035758;28;20388;-89
2023/10/19 13:10:11;;;;;;;0.30;0.20;;;22.30;99.90;;;;;;5031224;28;20451;-78
2023/10/19 13:12:37;;;;;;;0.30;0.20;;;22.40;99.90;;;;;;5025652;28;20455;-78